FLL weather

Fort Lauderdale Hollywood International Airport
Fort Lauderdale, Florida, United States

Public forecast

Using degrees Fahrenheit for public forecast. Weather courtesy of forecast.io.

Current aviation weather report (METAR) for Fort Lauderdale Hollywood International Airport

Retrieved 2019/10/23 01:53 UTC (41 minutes ago):

KFLL 230153Z 17004KT 10SM FEW020 SCT070 28/25 A3001 RMK AO2 LTG DSNT W SLP160 OCNL LTGICCG DSNT W NW CB DSNT W NW MOV NE T02830250

Aviation forecast (TAF) for Fort Lauderdale Hollywood International Airport

Retrieved 2019-10-23 00:28 UTC (2 hours ago):

TAF KFLL 222320Z 2300/2406 13009KT P6SM SCT025 SCT080 FM230100 VRB03KT P6SM FEW025 SCT250 FM231500 09010KT P6SM VCSH SCT030 SCT060 FM240100 VRB03KT P6SM SCT030